sensor_id;sensor_type;location;lat;lon;timestamp;pressure;altitude;pressure_sealevel;temperature;humidity
40998;BME280;26740;45.944;12.480;2022-12-07T00:01:39;101019.69;;;1.53;100.00
40998;BME280;26740;45.944;12.480;2022-12-07T00:04:05;101021.69;;;1.59;100.00
40998;BME280;26740;45.944;12.480;2022-12-07T00:06:37;101016.88;;;1.61;100.00
40998;BME280;26740;45.944;12.480;2022-12-07T00:09:04;101020.28;;;1.63;100.00
40998;BME280;26740;45.944;12.480;2022-12-07T00:11:30;101007.44;;;1.49;100.00
40998;BME280;26740;45.944;12.480;2022-12-07T00:14:01;101000.34;;;1.55;100.00
40998;BME280;26740;45.944;12.480;2022-12-07T00:16:30;101002.44;;;1.52;100.00
40998;BME280;26740;45.944;12.480;2022-12-07T00:18:57;100993.19;;;1.39;100.00
40998;BME280;26740;45.944;12.480;2022-12-07T00:21:27;100990.47;;;1.24;100.00
40998;BME280;26740;45.944;12.480;2022-12-07T00:23:55;100994.41;;;1.21;100.00
40998;BME280;26740;45.944;12.480;2022-12-07T00:26:27;100985.66;;;1.26;100.00
40998;BME280;26740;45.944;12.480;2022-12-07T00:29:04;100982.25;;;1.24;100.00
40998;BME280;26740;45.944;12.480;2022-12-07T00:31:33;100980.53;;;1.23;100.00
40998;BME280;26740;45.944;12.480;2022-12-07T00:34:01;100970.16;;;1.18;100.00
40998;BME280;26740;45.944;12.480;2022-12-07T00:36:26;100969.91;;;1.13;100.00
40998;BME280;26740;45.944;12.480;2022-12-07T00:38:53;100974.25;;;1.22;100.00
40998;BME280;26740;45.944;12.480;2022-12-07T00:41:22;100977.63;;;1.24;100.00
40998;BME280;26740;45.944;12.480;2022-12-07T00:43:49;100980.25;;;1.18;100.00
40998;BME280;26740;45.944;12.480;2022-12-07T00:46:17;100962.53;;;1.13;100.00
40998;BME280;26740;45.944;12.480;2022-12-07T00:48:43;100971.56;;;1.14;100.00
40998;BME280;26740;45.944;12.480;2022-12-07T00:51:11;100973.72;;;1.04;100.00
40998;BME280;26740;45.944;12.480;2022-12-07T00:53:38;100975.56;;;1.11;100.00
40998;BME280;26740;45.944;12.480;2022-12-07T00:56:25;100973.00;;;1.10;100.00
40998;BME280;26740;45.944;12.480;2022-12-07T00:59:00;100968.56;;;1.09;100.00
40998;BME280;26740;45.944;12.480;2022-12-07T01:01:29;100977.53;;;1.03;100.00
40998;BME280;26740;45.944;12.480;2022-12-07T01:03:55;100979.31;;;0.96;100.00
40998;BME280;26740;45.944;12.480;2022-12-07T01:06:22;100977.38;;;0.81;100.00
40998;BME280;26740;45.944;12.480;2022-12-07T01:08:48;100985.31;;;0.76;100.00
40998;BME280;26740;45.944;12.480;2022-12-07T01:11:18;100980.44;;;0.63;100.00
40998;BME280;26740;45.944;12.480;2022-12-07T01:13:45;100979.13;;;0.59;100.00
40998;BME280;26740;45.944;12.480;2022-12-07T01:16:13;100977.88;;;0.62;100.00
40998;BME280;26740;45.944;12.480;2022-12-07T01:18:39;100976.69;;;0.64;100.00
40998;BME280;26740;45.944;12.480;2022-12-07T01:21:23;100972.66;;;0.75;100.00
40998;BME280;26740;45.944;12.480;2022-12-07T01:23:50;100974.25;;;0.69;100.00
40998;BME280;26740;45.944;12.480;2022-12-07T01:26:19;100971.75;;;0.60;100.00
40998;BME280;26740;45.944;12.480;2022-12-07T01:28:46;100974.88;;;0.56;100.00
40998;BME280;26740;45.944;12.480;2022-12-07T01:31:15;100970.69;;;0.46;100.00
40998;BME280;26740;45.944;12.480;2022-12-07T01:33:42;100966.97;;;0.38;100.00
40998;BME280;26740;45.944;12.480;2022-12-07T01:36:16;100974.28;;;0.46;100.00
40998;BME280;26740;45.944;12.480;2022-12-07T01:38:43;100965.63;;;0.57;100.00
40998;BME280;26740;45.944;12.480;2022-12-07T01:41:09;100968.31;;;0.66;100.00
40998;BME280;26740;45.944;12.480;2022-12-07T01:43:36;100952.75;;;0.66;100.00
40998;BME280;26740;45.944;12.480;2022-12-07T01:46:03;100952.03;;;0.49;100.00
40998;BME280;26740;45.944;12.480;2022-12-07T01:48:37;100960.13;;;0.43;100.00
40998;BME280;26740;45.944;12.480;2022-12-07T01:51:09;100956.31;;;0.29;100.00
40998;BME280;26740;45.944;12.480;2022-12-07T01:53:40;100962.63;;;0.29;100.00
40998;BME280;26740;45.944;12.480;2022-12-07T01:56:11;100958.13;;;0.36;100.00
40998;BME280;26740;45.944;12.480;2022-12-07T01:58:41;100958.72;;;0.47;100.00
40998;BME280;26740;45.944;12.480;2022-12-07T02:01:06;100961.16;;;0.42;100.00
40998;BME280;26740;45.944;12.480;2022-12-07T02:03:40;100954.84;;;0.41;100.00
40998;BME280;26740;45.944;12.480;2022-12-07T02:06:07;100938.81;;;0.38;100.00
40998;BME280;26740;45.944;12.480;2022-12-07T02:08:34;100944.16;;;0.31;100.00
40998;BME280;26740;45.944;12.480;2022-12-07T02:11:01;100948.84;;;0.23;100.00
40998;BME280;26740;45.944;12.480;2022-12-07T02:13:30;100945.78;;;0.17;100.00
40998;BME280;26740;45.944;12.480;2022-12-07T02:24:40;100938.34;;;0.11;100.00
40998;BME280;26740;45.944;12.480;2022-12-07T02:30:12;100943.84;;;0.03;100.00
40998;BME280;26740;45.944;12.480;2022-12-07T02:32:55;100946.91;;;0.08;100.00
40998;BME280;26740;45.944;12.480;2022-12-07T02:35:34;100948.91;;;0.14;100.00
40998;BME280;26740;45.944;12.480;2022-12-07T02:40:55;100948.91;;;0.14;100.00
40998;BME280;26740;45.944;12.480;2022-12-07T02:43:26;100943.94;;;0.18;100.00
40998;BME280;26740;45.944;12.480;2022-12-07T02:45:56;100937.13;;;0.14;100.00
40998;BME280;26740;45.944;12.480;2022-12-07T02:48:24;100937.81;;;0.16;100.00
40998;BME280;26740;45.944;12.480;2022-12-07T02:50:53;100929.97;;;0.13;100.00
40998;BME280;26740;45.944;12.480;2022-12-07T02:53:48;100925.72;;;0.10;100.00
40998;BME280;26740;45.944;12.480;2022-12-07T03:12:43;100908.97;;;0.13;100.00
40998;BME280;26740;45.944;12.480;2022-12-07T03:15:14;100907.25;;;0.12;100.00
40998;BME280;26740;45.944;12.480;2022-12-07T03:17:43;100909.81;;;0.14;100.00
40998;BME280;26740;45.944;12.480;2022-12-07T03:20:13;100899.84;;;0.21;100.00
40998;BME280;26740;45.944;12.480;2022-12-07T03:22:42;100898.66;;;0.24;100.00
40998;BME280;26740;45.944;12.480;2022-12-07T03:25:12;100902.81;;;0.20;100.00
40998;BME280;26740;45.944;12.480;2022-12-07T03:28:01;100905.88;;;0.16;100.00
40998;BME280;26740;45.944;12.480;2022-12-07T03:30:46;100898.91;;;0.14;100.00
40998;BME280;26740;45.944;12.480;2022-12-07T03:33:22;100905.16;;;0.23;100.00
40998;BME280;26740;45.944;12.480;2022-12-07T03:36:04;100903.28;;;0.23;100.00
40998;BME280;26740;45.944;12.480;2022-12-07T03:39:06;100891.97;;;0.26;100.00
40998;BME280;26740;45.944;12.480;2022-12-07T03:41:35;100898.66;;;0.24;100.00
40998;BME280;26740;45.944;12.480;2022-12-07T03:44:02;100901.94;;;0.19;100.00
40998;BME280;26740;45.944;12.480;2022-12-07T03:49:37;100911.03;;;0.34;100.00
40998;BME280;26740;45.944;12.480;2022-12-07T03:52:25;100905.56;;;0.34;100.00
40998;BME280;26740;45.944;12.480;2022-12-07T03:57:24;100903.16;;;-0.07;100.00
40998;BME280;26740;45.944;12.480;2022-12-07T03:59:51;100901.44;;;-0.08;100.00
40998;BME280;26740;45.944;12.480;2022-12-07T04:02:19;100896.56;;;-0.12;100.00
40998;BME280;26740;45.944;12.480;2022-12-07T04:04:45;100897.25;;;-0.18;100.00
40998;BME280;26740;45.944;12.480;2022-12-07T04:07:11;100889.13;;;-0.27;100.00
40998;BME280;26740;45.944;12.480;2022-12-07T04:09:38;100894.97;;;-0.30;100.00
40998;BME280;26740;45.944;12.480;2022-12-07T04:12:04;100892.72;;;-0.26;100.00
40998;BME280;26740;45.944;12.480;2022-12-07T04:14:30;100896.47;;;-0.27;100.00
40998;BME280;26740;45.944;12.480;2022-12-07T04:16:57;100906.69;;;-0.21;100.00
40998;BME280;26740;45.944;12.480;2022-12-07T04:19:28;100895.81;;;-0.29;100.00
40998;BME280;26740;45.944;12.480;2022-12-07T04:21:55;100907.72;;;-0.30;100.00
40998;BME280;26740;45.944;12.480;2022-12-07T04:24:22;100900.72;;;-0.25;100.00
40998;BME280;26740;45.944;12.480;2022-12-07T04:26:48;100900.00;;;-0.18;100.00
40998;BME280;26740;45.944;12.480;2022-12-07T04:29:14;100902.75;;;-0.27;100.00
40998;BME280;26740;45.944;12.480;2022-12-07T04:31:40;100900.22;;;-0.28;100.00
40998;BME280;26740;45.944;12.480;2022-12-07T04:34:06;100895.97;;;-0.31;100.00
40998;BME280;26740;45.944;12.480;2022-12-07T04:36:33;100899.19;;;-0.27;100.00
40998;BME280;26740;45.944;12.480;2022-12-07T04:38:59;100889.69;;;-0.31;100.00
40998;BME280;26740;45.944;12.480;2022-12-07T04:41:25;100900.59;;;-0.31;100.00
40998;BME280;26740;45.944;12.480;2022-12-07T04:43:59;100897.00;;;-0.32;100.00
40998;BME280;26740;45.944;12.480;2022-12-07T04:46:26;100891.06;;;-0.35;100.00
40998;BME280;26740;45.944;12.480;2022-12-07T04:48:53;100898.41;;;-0.36;100.00
40998;BME280;26740;45.944;12.480;2022-12-07T04:51:22;100890.03;;;-0.34;100.00
40998;BME280;26740;45.944;12.480;2022-12-07T04:53:49;100891.25;;;-0.37;100.00
40998;BME280;26740;45.944;12.480;2022-12-07T04:56:15;100891.59;;;-0.40;100.00
40998;BME280;26740;45.944;12.480;2022-12-07T04:58:42;100886.41;;;-0.27;100.00
40998;BME280;26740;45.944;12.480;2022-12-07T05:01:08;100875.16;;;-0.32;100.00
40998;BME280;26740;45.944;12.480;2022-12-07T05:03:36;100890.22;;;-0.36;100.00
40998;BME280;26740;45.944;12.480;2022-12-07T05:06:02;100885.53;;;-0.50;100.00
40998;BME280;26740;45.944;12.480;2022-12-07T05:08:28;100883.28;;;-0.47;100.00
40998;BME280;26740;45.944;12.480;2022-12-07T05:10:53;100879.13;;;-0.34;100.00
40998;BME280;26740;45.944;12.480;2022-12-07T05:13:19;100877.91;;;-0.32;100.00
40998;BME280;26740;45.944;12.480;2022-12-07T05:15:47;100873.81;;;-0.28;100.00
40998;BME280;26740;45.944;12.480;2022-12-07T05:18:12;100874.34;;;-0.32;100.00
40998;BME280;26740;45.944;12.480;2022-12-07T05:20:42;100865.66;;;-0.36;100.00
40998;BME280;26740;45.944;12.480;2022-12-07T05:23:08;100871.94;;;-0.35;100.00
40998;BME280;26740;45.944;12.480;2022-12-07T05:25:34;100867.69;;;-0.30;100.00
40998;BME280;26740;45.944;12.480;2022-12-07T05:28:00;100873.19;;;-0.38;100.00
40998;BME280;26740;45.944;12.480;2022-12-07T05:30:26;100873.97;;;-0.29;100.00
40998;BME280;26740;45.944;12.480;2022-12-07T05:32:52;100877.56;;;-0.06;100.00
40998;BME280;26740;45.944;12.480;2022-12-07T05:35:18;100865.06;;;-0.23;100.00
40998;BME280;26740;45.944;12.480;2022-12-07T05:37:44;100869.13;;;-0.42;100.00
40998;BME280;26740;45.944;12.480;2022-12-07T05:40:11;100867.66;;;-0.53;100.00
40998;BME280;26740;45.944;12.480;2022-12-07T05:42:38;100866.84;;;-0.62;100.00
40998;BME280;26740;45.944;12.480;2022-12-07T05:45:05;100869.19;;;-0.59;100.00
40998;BME280;26740;45.944;12.480;2022-12-07T05:47:31;100871.59;;;-0.64;100.00
40998;BME280;26740;45.944;12.480;2022-12-07T05:49:57;100870.06;;;-0.58;100.00
40998;BME280;26740;45.944;12.480;2022-12-07T05:52:23;100873.38;;;-0.48;100.00
40998;BME280;26740;45.944;12.480;2022-12-07T05:54:49;100870.00;;;-0.50;100.00
40998;BME280;26740;45.944;12.480;2022-12-07T05:57:14;100878.19;;;-0.50;100.00
40998;BME280;26740;45.944;12.480;2022-12-07T05:59:40;100883.00;;;-0.60;100.00
40998;BME280;26740;45.944;12.480;2022-12-07T06:02:09;100879.06;;;-0.49;100.00
40998;BME280;26740;45.944;12.480;2022-12-07T06:04:37;100886.84;;;-0.46;100.00
40998;BME280;26740;45.944;12.480;2022-12-07T06:07:04;100895.28;;;-0.56;100.00
40998;BME280;26740;45.944;12.480;2022-12-07T06:09:30;100900.38;;;-0.53;100.00
40998;BME280;26740;45.944;12.480;2022-12-07T06:11:57;100890.53;;;-0.31;100.00
40998;BME280;26740;45.944;12.480;2022-12-07T06:14:41;100901.47;;;-0.39;100.00
40998;BME280;26740;45.944;12.480;2022-12-07T06:17:08;100907.84;;;-0.47;100.00
40998;BME280;26740;45.944;12.480;2022-12-07T06:19:33;100912.44;;;-0.47;100.00
40998;BME280;26740;45.944;12.480;2022-12-07T06:22:01;100918.09;;;-0.49;100.00
40998;BME280;26740;45.944;12.480;2022-12-07T06:24:27;100914.28;;;-0.40;100.00
40998;BME280;26740;45.944;12.480;2022-12-07T06:26:53;100908.31;;;-0.43;100.00
40998;BME280;26740;45.944;12.480;2022-12-07T06:29:19;100911.72;;;-0.41;100.00
40998;BME280;26740;45.944;12.480;2022-12-07T06:31:45;100906.81;;;-0.46;100.00
40998;BME280;26740;45.944;12.480;2022-12-07T06:34:13;100904.97;;;-0.53;100.00
40998;BME280;26740;45.944;12.480;2022-12-07T06:36:39;100906.00;;;-0.54;100.00
40998;BME280;26740;45.944;12.480;2022-12-07T06:39:06;100911.50;;;-0.63;100.00
40998;BME280;26740;45.944;12.480;2022-12-07T06:41:33;100914.75;;;-0.67;100.00
40998;BME280;26740;45.944;12.480;2022-12-07T06:43:59;100910.00;;;-0.65;100.00
40998;BME280;26740;45.944;12.480;2022-12-07T06:46:25;100908.09;;;-0.65;100.00
40998;BME280;26740;45.944;12.480;2022-12-07T06:48:51;100901.06;;;-0.51;100.00
40998;BME280;26740;45.944;12.480;2022-12-07T06:51:18;100896.88;;;-0.39;100.00
40998;BME280;26740;45.944;12.480;2022-12-07T06:53:44;100897.94;;;-0.16;100.00
40998;BME280;26740;45.944;12.480;2022-12-07T06:56:10;100897.72;;;0.31;100.00
40998;BME280;26740;45.944;12.480;2022-12-07T06:58:36;100909.31;;;0.71;100.00
40998;BME280;26740;45.944;12.480;2022-12-07T07:01:02;100907.63;;;1.00;100.00
40998;BME280;26740;45.944;12.480;2022-12-07T07:03:28;100902.63;;;1.04;100.00
40998;BME280;26740;45.944;12.480;2022-12-07T07:05:54;100912.91;;;1.02;100.00
40998;BME280;26740;45.944;12.480;2022-12-07T07:08:19;100905.56;;;1.02;100.00
40998;BME280;26740;45.944;12.480;2022-12-07T07:10:45;100907.28;;;1.03;100.00
40998;BME280;26740;45.944;12.480;2022-12-07T07:13:10;100908.69;;;0.99;100.00
40998;BME280;26740;45.944;12.480;2022-12-07T07:15:38;100912.84;;;1.10;100.00
40998;BME280;26740;45.944;12.480;2022-12-07T07:18:04;100906.22;;;2.07;100.00
40998;BME280;26740;45.944;12.480;2022-12-07T07:20:29;100909.38;;;2.54;100.00
40998;BME280;26740;45.944;12.480;2022-12-07T07:22:55;100903.31;;;2.87;100.00
40998;BME280;26740;45.944;12.480;2022-12-07T07:25:21;100901.78;;;2.77;100.00
40998;BME280;26740;45.944;12.480;2022-12-07T07:27:47;100911.72;;;2.85;100.00
40998;BME280;26740;45.944;12.480;2022-12-07T07:30:13;100901.97;;;2.76;100.00
40998;BME280;26740;45.944;12.480;2022-12-07T07:32:38;100911.00;;;3.04;100.00
40998;BME280;26740;45.944;12.480;2022-12-07T07:35:04;100910.72;;;3.69;100.00
40998;BME280;26740;45.944;12.480;2022-12-07T07:37:30;100912.56;;;4.70;100.00
40998;BME280;26740;45.944;12.480;2022-12-07T07:39:55;100911.69;;;4.90;100.00
40998;BME280;26740;45.944;12.480;2022-12-07T07:42:21;100921.13;;;5.41;100.00
40998;BME280;26740;45.944;12.480;2022-12-07T07:44:47;100919.88;;;5.82;100.00
40998;BME280;26740;45.944;12.480;2022-12-07T07:47:13;100915.38;;;5.49;100.00
40998;BME280;26740;45.944;12.480;2022-12-07T07:49:38;100923.47;;;5.37;100.00
40998;BME280;26740;45.944;12.480;2022-12-07T07:52:05;100923.94;;;4.94;100.00
40998;BME280;26740;45.944;12.480;2022-12-07T07:54:31;100925.44;;;5.03;100.00
40998;BME280;26740;45.944;12.480;2022-12-07T07:56:57;100923.13;;;4.67;100.00
40998;BME280;26740;45.944;12.480;2022-12-07T07:59:23;100912.13;;;4.67;100.00
40998;BME280;26740;45.944;12.480;2022-12-07T08:01:50;100918.47;;;4.47;100.00
40998;BME280;26740;45.944;12.480;2022-12-07T08:04:15;100915.94;;;4.59;100.00
40998;BME280;26740;45.944;12.480;2022-12-07T08:06:41;100918.25;;;4.69;100.00
40998;BME280;26740;45.944;12.480;2022-12-07T08:09:08;100917.53;;;5.34;100.00
40998;BME280;26740;45.944;12.480;2022-12-07T08:11:34;100928.03;;;6.40;100.00
40998;BME280;26740;45.944;12.480;2022-12-07T08:14:00;100924.75;;;7.44;100.00
40998;BME280;26740;45.944;12.480;2022-12-07T08:16:26;100932.44;;;7.79;100.00
40998;BME280;26740;45.944;12.480;2022-12-07T08:18:52;100935.97;;;7.49;100.00
40998;BME280;26740;45.944;12.480;2022-12-07T08:21:18;100944.69;;;6.84;100.00
40998;BME280;26740;45.944;12.480;2022-12-07T08:23:43;100935.34;;;6.85;100.00
40998;BME280;26740;45.944;12.480;2022-12-07T08:26:14;100934.72;;;7.08;100.00
40998;BME280;26740;45.944;12.480;2022-12-07T08:28:41;100938.03;;;8.21;100.00
40998;BME280;26740;45.944;12.480;2022-12-07T08:31:14;100941.88;;;9.16;100.00
40998;BME280;26740;45.944;12.480;2022-12-07T08:33:41;100955.59;;;10.56;100.00
40998;BME280;26740;45.944;12.480;2022-12-07T08:36:09;100948.72;;;11.10;100.00
40998;BME280;26740;45.944;12.480;2022-12-07T08:38:36;100952.16;;;11.73;100.00
40998;BME280;26740;45.944;12.480;2022-12-07T08:41:03;100948.22;;;11.91;100.00
40998;BME280;26740;45.944;12.480;2022-12-07T08:43:29;100957.44;;;13.33;94.73
40998;BME280;26740;45.944;12.480;2022-12-07T08:51:43;100966.88;;;13.74;84.74
40998;BME280;26740;45.944;12.480;2022-12-07T08:54:13;100966.13;;;13.84;87.64
40998;BME280;26740;45.944;12.480;2022-12-07T08:56:39;100970.34;;;15.22;79.62
40998;BME280;26740;45.944;12.480;2022-12-07T08:59:06;100970.63;;;15.10;79.47
40998;BME280;26740;45.944;12.480;2022-12-07T09:01:33;100978.56;;;16.59;73.23
40998;BME280;26740;45.944;12.480;2022-12-07T09:03:58;100976.47;;;14.67;80.98
40998;BME280;26740;45.944;12.480;2022-12-07T09:06:24;100971.44;;;15.15;84.59
40998;BME280;26740;45.944;12.480;2022-12-07T09:08:52;100970.78;;;15.96;80.63
40998;BME280;26740;45.944;12.480;2022-12-07T09:11:20;100966.38;;;16.84;78.48
40998;BME280;26740;45.944;12.480;2022-12-07T09:13:45;100982.91;;;17.20;79.96
40998;BME280;26740;45.944;12.480;2022-12-07T09:16:11;100976.72;;;18.49;73.89
40998;BME280;26740;45.944;12.480;2022-12-07T09:18:37;100979.69;;;17.37;76.42
40998;BME280;26740;45.944;12.480;2022-12-07T09:21:04;100977.84;;;15.57;79.23
40998;BME280;26740;45.944;12.480;2022-12-07T09:23:30;100975.94;;;15.16;80.40
40998;BME280;26740;45.944;12.480;2022-12-07T09:26:02;100974.78;;;15.53;75.58
40998;BME280;26740;45.944;12.480;2022-12-07T09:28:27;100974.56;;;15.04;76.42
40998;BME280;26740;45.944;12.480;2022-12-07T09:30:53;100964.75;;;14.96;79.07
40998;BME280;26740;45.944;12.480;2022-12-07T09:33:19;100964.28;;;16.55;77.17
40998;BME280;26740;45.944;12.480;2022-12-07T09:35:49;100960.06;;;17.02;75.19
40998;BME280;26740;45.944;12.480;2022-12-07T09:38:16;100954.72;;;18.13;73.29
40998;BME280;26740;45.944;12.480;2022-12-07T09:40:43;100956.53;;;19.18;66.15
40998;BME280;26740;45.944;12.480;2022-12-07T09:43:18;100957.19;;;19.28;65.59
40998;BME280;26740;45.944;12.480;2022-12-07T09:45:45;100954.03;;;20.32;64.03
40998;BME280;26740;45.944;12.480;2022-12-07T09:48:18;100955.78;;;19.45;65.31
40998;BME280;26740;45.944;12.480;2022-12-07T09:50:47;100951.63;;;20.12;62.16
40998;BME280;26740;45.944;12.480;2022-12-07T09:53:28;100944.38;;;18.08;68.84
40998;BME280;26740;45.944;12.480;2022-12-07T09:55:56;100956.38;;;17.66;73.60
40998;BME280;26740;45.944;12.480;2022-12-07T09:58:24;100945.94;;;17.95;70.78
40998;BME280;26740;45.944;12.480;2022-12-07T10:03:33;100942.63;;;18.12;67.18
40998;BME280;26740;45.944;12.480;2022-12-07T10:06:01;100942.56;;;17.16;71.03
40998;BME280;26740;45.944;12.480;2022-12-07T10:08:27;100939.88;;;17.00;76.47
40998;BME280;26740;45.944;12.480;2022-12-07T10:10:55;100939.09;;;16.95;73.38
40998;BME280;26740;45.944;12.480;2022-12-07T10:13:44;100937.00;;;17.11;70.85
40998;BME280;26740;45.944;12.480;2022-12-07T10:18:52;100926.28;;;16.83;75.70
40998;BME280;26740;45.944;12.480;2022-12-07T10:21:23;100917.31;;;17.40;73.27
40998;BME280;26740;45.944;12.480;2022-12-07T10:24:05;100923.28;;;18.30;64.37
40998;BME280;26740;45.944;12.480;2022-12-07T10:29:27;100913.34;;;18.56;66.21
40998;BME280;26740;45.944;12.480;2022-12-07T10:32:04;100912.75;;;19.11;63.86
40998;BME280;26740;45.944;12.480;2022-12-07T10:34:37;100906.09;;;18.12;64.00
40998;BME280;26740;45.944;12.480;2022-12-07T10:37:21;100910.50;;;19.55;59.46
40998;BME280;26740;45.944;12.480;2022-12-07T10:39:53;100908.84;;;18.74;60.99
40998;BME280;26740;45.944;12.480;2022-12-07T10:42:23;100916.34;;;19.45;59.87
40998;BME280;26740;45.944;12.480;2022-12-07T10:45:12;100907.88;;;20.28;57.73
40998;BME280;26740;45.944;12.480;2022-12-07T10:50:42;100912.34;;;18.47;60.20
40998;BME280;26740;45.944;12.480;2022-12-07T10:53:24;100905.88;;;18.28;64.05
40998;BME280;26740;45.944;12.480;2022-12-07T10:56:45;100903.91;;;18.09;63.60
40998;BME280;26740;45.944;12.480;2022-12-07T11:01:45;100895.00;;;18.78;61.03
40998;BME280;26740;45.944;12.480;2022-12-07T11:04:31;100892.63;;;17.13;66.72
40998;BME280;26740;45.944;12.480;2022-12-07T11:07:22;100880.03;;;18.64;63.52
40998;BME280;26740;45.944;12.480;2022-12-07T11:10:05;100881.16;;;18.63;58.98
40998;BME280;26740;45.944;12.480;2022-12-07T11:17:54;100861.66;;;17.23;64.53
40998;BME280;26740;45.944;12.480;2022-12-07T11:23:49;100877.63;;;18.38;47.82
40998;BME280;26740;45.944;12.480;2022-12-07T11:37:31;100854.13;;;20.11;48.01
40998;BME280;26740;45.944;12.480;2022-12-07T11:40:20;100850.44;;;19.74;49.77
40998;BME280;26740;45.944;12.480;2022-12-07T11:43:05;100844.38;;;19.66;51.97
40998;BME280;26740;45.944;12.480;2022-12-07T11:45:37;100853.09;;;17.81;52.43
40998;BME280;26740;45.944;12.480;2022-12-07T11:51:00;100842.59;;;16.61;53.47
40998;BME280;26740;45.944;12.480;2022-12-07T11:53:44;100836.91;;;15.92;54.72
40998;BME280;26740;45.944;12.480;2022-12-07T11:56:19;100833.66;;;14.79;57.92
40998;BME280;26740;45.944;12.480;2022-12-07T12:01:18;100829.91;;;13.86;65.66
40998;BME280;26740;45.944;12.480;2022-12-07T12:03:52;100827.44;;;14.20;68.25
40998;BME280;26740;45.944;12.480;2022-12-07T12:06:19;100836.13;;;14.45;59.71
40998;BME280;26740;45.944;12.480;2022-12-07T12:08:50;100831.03;;;13.27;64.18
40998;BME280;26740;45.944;12.480;2022-12-07T12:22:40;100815.88;;;13.60;64.76
40998;BME280;26740;45.944;12.480;2022-12-07T12:25:23;100810.31;;;13.02;60.60
40998;BME280;26740;45.944;12.480;2022-12-07T12:27:52;100805.56;;;13.03;66.13
40998;BME280;26740;45.944;12.480;2022-12-07T12:30:39;100804.44;;;13.04;61.60
40998;BME280;26740;45.944;12.480;2022-12-07T12:33:14;100806.13;;;13.05;61.38
40998;BME280;26740;45.944;12.480;2022-12-07T12:35:43;100807.25;;;13.09;66.51
40998;BME280;26740;45.944;12.480;2022-12-07T12:38:30;100810.56;;;13.01;67.26
40998;BME280;26740;45.944;12.480;2022-12-07T12:41:00;100808.91;;;13.05;70.24
40998;BME280;26740;45.944;12.480;2022-12-07T12:43:50;100817.69;;;12.81;71.24
40998;BME280;26740;45.944;12.480;2022-12-07T12:46:50;100812.75;;;12.94;61.74
40998;BME280;26740;45.944;12.480;2022-12-07T12:51:52;100803.66;;;12.66;69.10
40998;BME280;26740;45.944;12.480;2022-12-07T12:54:24;100813.03;;;13.40;72.34
40998;BME280;26740;45.944;12.480;2022-12-07T12:57:06;100801.03;;;12.97;68.46
40998;BME280;26740;45.944;12.480;2022-12-07T12:59:56;100806.56;;;12.81;70.32
40998;BME280;26740;45.944;12.480;2022-12-07T13:07:49;100795.94;;;12.78;67.43
40998;BME280;26740;45.944;12.480;2022-12-07T13:15:52;100790.31;;;12.73;67.61
40998;BME280;26740;45.944;12.480;2022-12-07T13:26:16;100779.47;;;12.77;70.47
40998;BME280;26740;45.944;12.480;2022-12-07T13:28:45;100781.97;;;13.26;73.70
40998;BME280;26740;45.944;12.480;2022-12-07T13:31:13;100779.59;;;13.55;66.27
40998;BME280;26740;45.944;12.480;2022-12-07T13:33:43;100777.44;;;13.83;67.71
40998;BME280;26740;45.944;12.480;2022-12-07T13:36:18;100774.59;;;13.73;63.98
40998;BME280;26740;45.944;12.480;2022-12-07T13:38:53;100773.16;;;13.50;65.76
40998;BME280;26740;45.944;12.480;2022-12-07T13:41:21;100776.75;;;12.87;66.77
40998;BME280;26740;45.944;12.480;2022-12-07T13:43:55;100763.03;;;12.75;66.41
40998;BME280;26740;45.944;12.480;2022-12-07T13:46:40;100767.66;;;12.59;72.67
40998;BME280;26740;45.944;12.480;2022-12-07T13:49:39;100773.31;;;12.32;68.82
40998;BME280;26740;45.944;12.480;2022-12-07T13:52:15;100769.06;;;12.57;67.95
40998;BME280;26740;45.944;12.480;2022-12-07T13:57:16;100776.44;;;12.78;68.96
40998;BME280;26740;45.944;12.480;2022-12-07T13:59:43;100772.44;;;13.12;67.15
40998;BME280;26740;45.944;12.480;2022-12-07T14:07:33;100772.81;;;12.08;70.39
40998;BME280;26740;45.944;12.480;2022-12-07T14:10:06;100777.59;;;11.85;68.31
40998;BME280;26740;45.944;12.480;2022-12-07T14:12:35;100778.41;;;11.86;66.28
40998;BME280;26740;45.944;12.480;2022-12-07T14:15:03;100776.81;;;11.90;66.96
40998;BME280;26740;45.944;12.480;2022-12-07T14:17:29;100774.13;;;11.73;68.50
40998;BME280;26740;45.944;12.480;2022-12-07T14:19:59;100782.97;;;11.65;68.75
40998;BME280;26740;45.944;12.480;2022-12-07T14:22:37;100784.75;;;11.54;70.38
40998;BME280;26740;45.944;12.480;2022-12-07T14:25:23;100788.28;;;11.44;71.91
40998;BME280;26740;45.944;12.480;2022-12-07T14:27:56;100792.06;;;11.38;72.33
40998;BME280;26740;45.944;12.480;2022-12-07T14:30:26;100795.25;;;11.47;69.83
40998;BME280;26740;45.944;12.480;2022-12-07T14:33:03;100793.00;;;11.44;69.53
40998;BME280;26740;45.944;12.480;2022-12-07T14:35:30;100797.00;;;11.31;71.38
40998;BME280;26740;45.944;12.480;2022-12-07T14:37:56;100799.91;;;11.19;71.60
40998;BME280;26740;45.944;12.480;2022-12-07T14:40:25;100794.25;;;10.92;72.45
40998;BME280;26740;45.944;12.480;2022-12-07T14:43:04;100804.22;;;10.71;73.28
40998;BME280;26740;45.944;12.480;2022-12-07T14:45:48;100798.72;;;10.54;75.48
40998;BME280;26740;45.944;12.480;2022-12-07T14:48:15;100795.19;;;10.41;76.20
40998;BME280;26740;45.944;12.480;2022-12-07T14:50:44;100802.63;;;10.24;81.65
40998;BME280;26740;45.944;12.480;2022-12-07T14:53:16;100798.16;;;10.06;84.07
40998;BME280;26740;45.944;12.480;2022-12-07T14:55:43;100800.91;;;9.89;86.13